Accueil
METAR-TAF:

METAR-TAF

Aéroports :

Koweït, Koweït

Aéroport international de Koweït

latitude: 29-13N, longitude: 047-59E, altitude: 55 m

Observation

Le bulletin a été fait il y a 46 minutes, à 08:00 UTC
Vent 6 kt de nord/nord-ouest
Température 40°C
Humidité 26%
Pression 1003 hPa
Visibilité: 6000 m
Ciel clair

METAR: OKBK 240800Z 34006KT 6000 SKC 40/17 Q1003 NOSIG

Heure: 11:46 (08:46 UTC)

Prévision

Le bulletin a été fait il y a 4 heures et 1 minutes, à 04:45 UTC
Prévision valable du 24 à 06 UTC au 25 à 12 UTC
Vent 12 kt de nord/nord-ouest
Visibilité: 6000 m
Temporairement
du 24 à 12 UTC au 24 à 18 UTC
Vent 3 kt de direction variable

TAF: OKBK 240445Z 2406/2512 34012KT 6000 NSC TEMPO 2412/2418 VRB03KT

Observations et prévisions météorologiques de plus de 4000 aéroports (messages METAR et TAF).

Les stations disponibles sont représentées par des disques jaunes et rouges sur la carte.

Passer la souris dessus pour voir le nom de la station.

Cliquer dessus pour voir les observations et prévisions météorologiques.

Pour changer de carte: cliquez sur les boutons verts avec une croix noire pour zoomer, sur le bouton vert avec un tiret pour effectuer un zoom arrière, ou sur les flèches vertes pour les cartes adjacentes.


METAR-TAF: